Startpagina
METAR-TAF:

METAR-TAF

Vliegvelden :

Groningen Airport Eelde

Groningen, Nederland

breedte: 53-08N, lengte: 006-35E, hoogte: 4 m

Actueel weer

Dit bericht is 27 minuten geleden gemaakt, om 05:25 UTC
Wind 5 kt uit het zuidzuidoosten, variërend tussen het oostzuidoosten en het zuiden
Temperatuur 17°C
Vochtigheid 82%
Druk 1019 hPa
Zicht 10 km of meer

METAR: EHGG 180525Z AUTO 15005KT 110V190 9999 NSC 17/14 Q1019 NOSIG

Tijdstip: 07:52 (05:52 UTC)

Verwachting

Dit bericht is 1 uur en het 0 minuten geleden gemaakt, om 04:52 UTC
Verwachting geldig van 18 om 06 UTC tot 19 om 12 UTC
Wind 5 kt uit het zuidzuidoosten
Zicht 10 km of meer
geen wolken onder 1500 m en geen cumulonimbus
Kans 30%
van 19 om 00 UTC tot 19 om 05 UTC
Zicht: 6000 m
Ondiepe mist
Tijdelijke
van 19 om 06 UTC tot 19 om 11 UTC
Zicht: 5000 m
Verspreide wolken op 8000 ft, Cumulonimbus.
regenbuien

TAF: EHGG 180452Z 1806/1912 15005KT CAVOK PROB30 1900/1905 6000 MIFG TEMPO 1906/1911 5000 SHRA SCT080CB

Waarnemingen en weersverwachtingen van meer dan 4000 vliegvelden (METAR en TAF).

De beschikbare stations zijn de gele en rode punten op de kaart.

Ga met uw muis naar het station om de naam te zien.

Klik dan om waarnemingen en weersverwachtingen te zien.

kaart wijzigen: klik op de groene knoppen met een zwart kruis om in te zoomen, op de groene knop met een streepje om uit te zoomen of op de groene pijlen voor aangrenzende kaarten.


METAR-TAF: